createdAt,value
2022-11-23T00:01:16.429Z,1.40
2022-11-23T00:03:44.286Z,1.05
2022-11-23T00:06:11.001Z,1.20
2022-11-23T00:08:37.408Z,1.30
2022-11-23T00:11:03.850Z,0.80
2022-11-23T00:13:30.645Z,1.17
2022-11-23T00:15:57.087Z,0.90
2022-11-23T00:18:23.530Z,1.00
2022-11-23T00:20:49.834Z,0.85
2022-11-23T00:23:16.308Z,1.25
2022-11-23T00:25:45.797Z,1.13
2022-11-23T00:28:12.848Z,0.95
2022-11-23T00:30:39.201Z,1.13
2022-11-23T00:33:05.652Z,0.90
2022-11-23T00:35:31.983Z,1.27
2022-11-23T00:37:58.309Z,1.10
2022-11-23T00:40:24.720Z,0.93
2022-11-23T00:42:51.080Z,0.88
2022-11-23T00:45:17.628Z,1.30
2022-11-23T00:47:43.951Z,1.13
2022-11-23T00:50:10.357Z,0.90
2022-11-23T00:52:36.697Z,0.90
2022-11-23T00:55:03.281Z,1.05
2022-11-23T00:57:29.649Z,1.00
2022-11-23T00:59:56.110Z,0.75
2022-11-23T01:02:22.491Z,0.82
2022-11-23T01:04:48.798Z,1.05
2022-11-23T01:07:15.200Z,1.00
2022-11-23T01:09:41.605Z,0.70
2022-11-23T01:12:07.990Z,0.98
2022-11-23T01:14:34.334Z,0.93
2022-11-23T01:17:00.696Z,0.75
2022-11-23T01:19:27.081Z,0.75
2022-11-23T01:21:53.528Z,0.80
2022-11-23T01:24:22.391Z,0.88
2022-11-23T01:26:53.300Z,1.00
2022-11-23T01:29:19.886Z,0.90
2022-11-23T01:31:47.061Z,0.65
2022-11-23T01:34:14.775Z,0.95
2022-11-23T01:36:41.466Z,0.88
2022-11-23T01:39:07.869Z,0.80
2022-11-23T01:41:37.581Z,0.82
2022-11-23T01:44:24.949Z,0.63
2022-11-23T01:46:51.586Z,1.13
2022-11-23T01:49:18.374Z,1.20
2022-11-23T01:51:49.346Z,0.80
2022-11-23T01:54:21.623Z,1.23
2022-11-23T01:56:53.280Z,2.20
2022-11-23T01:59:20.333Z,0.90
2022-11-23T02:01:46.891Z,1.00
2022-11-23T02:04:21.170Z,0.98
2022-11-23T02:06:48.070Z,1.25
2022-11-23T02:09:16.506Z,0.88
2022-11-23T02:11:43.351Z,1.00
2022-11-23T02:14:10.091Z,1.00
2022-11-23T02:16:38.202Z,1.00
2022-11-23T02:19:13.335Z,0.93
2022-11-23T02:24:17.904Z,0.75
2022-11-23T02:26:44.309Z,0.93
2022-11-23T02:29:25.200Z,1.10
2022-11-23T02:31:52.293Z,1.10
2022-11-23T02:34:18.988Z,0.80
2022-11-23T02:36:51.579Z,1.02
2022-11-23T02:39:23.633Z,1.02
2022-11-23T02:41:52.937Z,1.15
2022-11-23T02:44:25.093Z,0.80
2022-11-23T02:46:52.675Z,1.00
2022-11-23T02:49:19.060Z,1.17
2022-11-23T02:51:45.412Z,0.73
2022-11-23T02:54:11.800Z,0.85
2022-11-23T02:56:38.204Z,1.20
2022-11-23T02:59:04.528Z,0.98
2022-11-23T03:01:30.956Z,1.02
2022-11-23T03:03:57.368Z,1.02
2022-11-23T03:06:23.786Z,0.90
2022-11-23T03:08:50.151Z,0.90
2022-11-23T03:11:17.018Z,1.13
2022-11-23T03:13:43.464Z,1.10
2022-11-23T03:16:10.238Z,1.50
2022-11-23T03:18:36.911Z,1.83
2022-11-23T03:21:04.390Z,1.23
2022-11-23T03:23:31.122Z,1.20
2022-11-23T03:25:58.824Z,1.10
2022-11-23T03:28:25.577Z,1.23
2022-11-23T03:30:51.973Z,1.17
2022-11-23T03:33:19.190Z,1.40
2022-11-23T03:35:46.068Z,1.20
2022-11-23T03:38:12.499Z,1.30
2022-11-23T03:40:39.252Z,1.40
2022-11-23T03:43:05.766Z,1.70
2022-11-23T03:45:32.485Z,1.30
2022-11-23T03:47:59.366Z,1.33
2022-11-23T03:50:25.895Z,1.25
2022-11-23T03:52:52.251Z,1.10
2022-11-23T03:55:18.575Z,1.20
2022-11-23T03:57:48.060Z,1.20
2022-11-23T04:00:15.109Z,1.25
2022-11-23T04:02:43.086Z,1.50
2022-11-23T04:05:09.995Z,1.20
2022-11-23T04:07:36.449Z,1.30
2022-11-23T04:10:03.514Z,1.55
2022-11-23T04:12:29.880Z,0.95
2022-11-23T04:14:56.342Z,1.58
2022-11-23T04:17:22.705Z,1.73
2022-11-23T04:19:49.106Z,1.48
2022-11-23T04:22:15.428Z,1.27
2022-11-23T04:24:41.759Z,1.55
2022-11-23T04:27:08.132Z,1.70
2022-11-23T04:29:34.726Z,1.55
2022-11-23T04:32:01.183Z,1.80
2022-11-23T04:34:27.501Z,1.58
2022-11-23T04:36:53.954Z,1.52
2022-11-23T04:39:20.343Z,1.20
2022-11-23T04:41:46.697Z,1.20
2022-11-23T04:44:13.124Z,1.50
2022-11-23T04:46:39.498Z,1.70
2022-11-23T04:49:05.903Z,1.38
2022-11-23T04:51:32.281Z,1.58
2022-11-23T04:53:58.626Z,1.50
2022-11-23T04:56:25.010Z,1.40
2022-11-23T04:58:51.379Z,1.33
2022-11-23T05:01:17.863Z,1.50
2022-11-23T05:03:44.198Z,1.40
2022-11-23T05:06:10.650Z,1.30
2022-11-23T05:08:37.442Z,1.42
2022-11-23T05:11:03.795Z,1.80
2022-11-23T05:13:30.320Z,1.65
2022-11-23T05:15:56.688Z,1.27
2022-11-23T05:18:23.048Z,1.63
2022-11-23T05:20:49.408Z,1.77
2022-11-23T05:23:15.773Z,1.20
2022-11-23T05:25:42.323Z,1.60
2022-11-23T05:28:38.631Z,2.60
2022-11-23T05:31:02.028Z,1.20
2022-11-23T05:33:28.342Z,1.42
2022-11-23T05:35:54.753Z,1.50
2022-11-23T05:38:21.203Z,1.63
2022-11-23T05:40:47.615Z,1.85
2022-11-23T05:43:13.984Z,1.48
2022-11-23T05:45:40.400Z,2.00
2022-11-23T05:48:06.815Z,1.38
2022-11-23T05:50:33.210Z,2.00
2022-11-23T05:52:59.645Z,1.20
2022-11-23T05:55:26.764Z,1.60
2022-11-23T05:57:53.121Z,1.48
2022-11-23T06:00:19.837Z,1.30
2022-11-23T06:02:46.344Z,2.03
2022-11-23T06:05:12.753Z,2.95
2022-11-23T06:07:39.792Z,1.50
2022-11-23T06:10:07.302Z,1.42
2022-11-23T06:12:33.788Z,1.33
2022-11-23T06:15:00.149Z,1.70
2022-11-23T06:17:26.579Z,1.50
2022-11-23T06:19:52.949Z,1.75
2022-11-23T06:22:19.315Z,1.73
2022-11-23T06:24:45.680Z,1.73
2022-11-23T06:27:17.783Z,1.90
2022-11-23T06:29:44.555Z,2.42
2022-11-23T06:32:10.963Z,2.00
2022-11-23T06:34:37.622Z,1.75
2022-11-23T06:37:04.076Z,1.38
2022-11-23T06:39:30.689Z,2.30
2022-11-23T06:42:16.541Z,2.10
2022-11-23T06:44:43.847Z,1.50
2022-11-23T06:47:13.995Z,1.73
2022-11-23T06:49:43.222Z,1.73
2022-11-23T06:52:09.554Z,1.60
2022-11-23T06:54:35.980Z,2.10
2022-11-23T06:57:02.321Z,1.75
2022-11-23T06:59:28.651Z,2.25
2022-11-23T07:01:55.049Z,1.75
2022-11-23T07:04:21.477Z,2.25
2022-11-23T07:06:47.870Z,1.83
2022-11-23T07:09:14.212Z,1.60
2022-11-23T07:11:40.845Z,1.83
2022-11-23T07:14:07.236Z,1.33
2022-11-23T07:16:33.756Z,1.90
2022-11-23T07:19:00.098Z,1.45
2022-11-23T07:21:26.505Z,1.50
2022-11-23T07:23:52.886Z,1.63
2022-11-23T07:26:19.203Z,1.77
2022-11-23T07:28:45.565Z,1.50
2022-11-23T07:31:12.062Z,1.80
2022-11-23T07:33:38.425Z,1.40
2022-11-23T07:36:05.003Z,1.58
2022-11-23T07:38:31.452Z,1.48
2022-11-23T07:40:58.956Z,1.38
2022-11-23T07:43:25.366Z,1.50
2022-11-23T07:45:51.763Z,1.27
2022-11-23T07:48:18.186Z,1.10
2022-11-23T07:50:44.508Z,1.73
2022-11-23T07:53:11.040Z,1.95
2022-11-23T07:55:37.476Z,1.13
2022-11-23T07:58:05.675Z,1.98
2022-11-23T08:00:32.210Z,1.40
2022-11-23T08:03:26.004Z,1.23
2022-11-23T08:05:45.824Z,1.42
2022-11-23T08:08:12.313Z,1.42
2022-11-23T08:10:44.209Z,1.42
2022-11-23T08:13:12.595Z,2.05
2022-11-23T08:15:38.916Z,1.73
2022-11-23T08:18:05.684Z,1.50
2022-11-23T08:20:33.290Z,2.05
2022-11-23T08:22:59.661Z,1.42
2022-11-23T08:25:27.447Z,1.25
2022-11-23T08:27:59.753Z,1.67
2022-11-23T08:30:27.608Z,1.75
2022-11-23T08:32:54.045Z,1.15
2022-11-23T08:35:21.042Z,1.85
2022-11-23T08:37:47.557Z,1.80
2022-11-23T08:40:14.851Z,3.47
2022-11-23T08:42:41.275Z,1.52
2022-11-23T08:45:08.350Z,1.75
2022-11-23T08:47:34.787Z,1.75
2022-11-23T08:50:01.413Z,1.55
2022-11-23T08:52:27.780Z,1.55
2022-11-23T08:54:54.244Z,2.30
2022-11-23T08:57:20.554Z,2.10
2022-11-23T08:59:46.881Z,2.17
2022-11-23T09:02:14.095Z,2.03
2022-11-23T09:04:41.477Z,1.85
2022-11-23T09:07:08.231Z,2.20
2022-11-23T09:09:34.710Z,1.60
2022-11-23T09:12:01.146Z,1.77
2022-11-23T09:14:28.470Z,1.63
2022-11-23T09:16:55.318Z,1.65
2022-11-23T09:19:22.867Z,1.58
2022-11-23T09:21:49.479Z,1.63
2022-11-23T09:24:15.891Z,3.80
2022-11-23T09:26:42.291Z,2.25
2022-11-23T09:29:09.192Z,2.00
2022-11-23T09:31:35.921Z,1.55
2022-11-23T09:34:02.831Z,2.10
2022-11-23T09:36:29.248Z,1.77
2022-11-23T09:38:57.263Z,2.85
2022-11-23T09:42:13.286Z,1.80
2022-11-23T09:45:01.453Z,2.92
2022-11-23T09:47:27.813Z,2.13
2022-11-23T09:50:14.959Z,2.10
2022-11-23T09:52:47.404Z,3.15
2022-11-23T09:55:24.734Z,2.38
2022-11-23T09:57:56.608Z,2.10
2022-11-23T10:00:23.675Z,2.10
2022-11-23T10:02:50.202Z,2.75
2022-11-23T10:05:23.540Z,1.98
2022-11-23T10:08:01.909Z,1.73
2022-11-23T10:10:49.536Z,1.70
2022-11-23T10:13:15.862Z,2.05
2022-11-23T10:16:02.712Z,1.50
2022-11-23T10:18:42.725Z,1.95
2022-11-23T10:21:19.700Z,1.95
2022-11-23T10:23:56.830Z,2.15
2022-11-23T10:26:34.196Z,1.80
2022-11-23T10:29:24.703Z,1.73
2022-11-23T10:31:56.811Z,1.60
2022-11-23T10:34:42.441Z,1.90
2022-11-23T10:37:12.227Z,1.65
2022-11-23T10:39:38.639Z,1.60
2022-11-23T10:42:19.613Z,1.92
2022-11-23T10:44:48.496Z,2.08
2022-11-23T10:47:35.117Z,1.90
2022-11-23T10:50:02.017Z,2.13
2022-11-23T10:52:33.344Z,1.85
2022-11-23T10:55:02.879Z,2.10
2022-11-23T10:57:36.841Z,1.58
2022-11-23T11:00:09.716Z,1.45
2022-11-23T11:02:54.416Z,2.22
2022-11-23T11:05:53.174Z,1.95
2022-11-23T11:08:16.882Z,1.95
2022-11-23T11:10:49.856Z,1.60
2022-11-23T11:13:39.866Z,2.10
2022-11-23T11:16:15.871Z,1.80
2022-11-23T11:18:42.184Z,1.70
2022-11-23T11:21:32.589Z,2.05
2022-11-23T11:24:05.327Z,2.00
2022-11-23T11:26:34.881Z,1.90
2022-11-23T11:29:09.902Z,1.63
2022-11-23T11:32:01.471Z,1.58
2022-11-23T11:34:40.596Z,1.70
2022-11-23T11:37:35.652Z,1.80
2022-11-23T11:40:33.982Z,1.20
2022-11-23T11:43:39.208Z,1.95
2022-11-23T11:46:31.398Z,1.85
2022-11-23T11:49:07.323Z,1.83
2022-11-23T11:51:40.475Z,1.20
2022-11-23T11:54:33.369Z,1.55
2022-11-23T11:57:23.001Z,1.75
2022-11-23T11:59:54.797Z,1.50
2022-11-23T12:02:31.839Z,1.58
2022-11-23T12:05:18.223Z,1.60
2022-11-23T12:08:08.266Z,1.55
2022-11-23T12:10:37.718Z,1.42
2022-11-23T12:13:04.654Z,1.20
2022-11-23T12:15:50.540Z,1.45
2022-11-23T12:18:26.293Z,1.40
2022-11-23T12:20:55.701Z,1.48
2022-11-23T12:23:40.661Z,1.38
2022-11-23T12:26:17.631Z,1.30
2022-11-23T12:29:02.730Z,1.83
2022-11-23T12:31:45.281Z,1.13
2022-11-23T12:34:23.494Z,1.10
2022-11-23T12:37:22.428Z,1.20
2022-11-23T12:40:03.605Z,1.45
2022-11-23T12:42:42.697Z,1.08
2022-11-23T12:45:23.903Z,1.20
2022-11-23T12:48:22.190Z,1.35
2022-11-23T12:51:22.187Z,1.17
2022-11-23T12:53:53.949Z,1.30
2022-11-23T12:56:54.390Z,1.77
2022-11-23T12:59:22.892Z,1.70
2022-11-23T13:01:56.188Z,1.30
2022-11-23T13:04:31.991Z,1.85
2022-11-23T13:07:29.412Z,1.75
2022-11-23T13:10:15.833Z,1.63
2022-11-23T13:12:42.357Z,1.33
2022-11-23T13:15:33.699Z,1.73
2022-11-23T13:18:18.691Z,1.38
2022-11-23T13:21:14.192Z,1.52
2022-11-23T13:26:15.765Z,1.65
2022-11-23T13:28:43.353Z,1.55
2022-11-23T13:31:16.150Z,1.63
2022-11-23T13:33:45.362Z,1.70
2022-11-23T13:37:11.194Z,1.42
2022-11-23T13:39:55.242Z,1.40
2022-11-23T13:42:22.185Z,1.30
2022-11-23T13:44:48.565Z,0.90
2022-11-23T13:47:16.082Z,1.30
2022-11-23T13:49:45.888Z,1.38
2022-11-23T13:52:21.449Z,1.40
2022-11-23T13:55:03.984Z,1.30
2022-11-23T13:57:33.765Z,1.30
2022-11-23T14:00:37.957Z,1.20
2022-11-23T14:03:49.126Z,1.27
2022-11-23T14:06:33.557Z,1.40
2022-11-23T14:09:19.429Z,1.67
2022-11-23T14:12:14.669Z,1.23
2022-11-23T14:14:48.617Z,1.30
2022-11-23T14:17:40.764Z,3.03
2022-11-23T14:20:54.969Z,1.33
2022-11-23T14:23:49.145Z,1.55
2022-11-23T14:26:28.619Z,2.03
2022-11-23T14:29:07.589Z,1.88
2022-11-23T14:31:34.572Z,1.77
2022-11-23T14:34:32.467Z,1.80
2022-11-23T14:37:37.796Z,1.52
2022-11-23T14:40:25.439Z,1.42
2022-11-23T14:42:54.798Z,1.65
2022-11-23T14:45:23.846Z,1.75
2022-11-23T14:47:50.326Z,1.65
2022-11-23T14:50:22.058Z,1.75
2022-11-23T14:52:49.618Z,1.83
2022-11-23T14:55:22.347Z,1.67
2022-11-23T14:57:51.518Z,1.73
2022-11-23T15:00:26.045Z,1.77
2022-11-23T15:02:54.005Z,1.45
2022-11-23T15:05:26.545Z,1.67
2022-11-23T15:08:18.106Z,2.28
2022-11-23T15:11:18.847Z,1.30
2022-11-23T15:13:46.628Z,1.52
2022-11-23T15:16:15.699Z,1.42
2022-11-23T15:18:42.991Z,1.50
2022-11-23T15:21:12.262Z,1.95
2022-11-23T15:23:41.900Z,1.60
2022-11-23T15:26:49.649Z,1.70
2022-11-23T15:29:34.033Z,2.33
2022-11-23T15:34:48.770Z,2.17
2022-11-23T15:37:16.216Z,2.53
2022-11-23T15:39:42.901Z,1.98
2022-11-23T15:42:15.400Z,1.77
2022-11-23T15:44:44.956Z,2.15
2022-11-23T15:47:22.789Z,1.70
2022-11-23T15:49:49.701Z,1.80
2022-11-23T15:52:18.932Z,1.67
2022-11-23T15:54:46.299Z,2.05
2022-11-23T15:57:21.807Z,1.50
2022-11-23T16:00:07.383Z,1.85
2022-11-23T16:05:17.305Z,2.08
2022-11-23T16:07:50.603Z,1.90
2022-11-23T16:10:30.122Z,2.22
2022-11-23T16:12:59.024Z,1.92
2022-11-23T16:15:37.524Z,2.22
2022-11-23T16:18:06.632Z,2.80
2022-11-23T16:20:33.223Z,1.95
2022-11-23T16:23:00.678Z,2.55
2022-11-23T16:25:31.605Z,3.42
2022-11-23T16:28:01.745Z,2.20
2022-11-23T16:30:40.785Z,2.33
2022-11-23T16:33:14.365Z,2.30
2022-11-23T16:35:40.980Z,1.70
2022-11-23T16:38:07.468Z,2.00
2022-11-23T16:40:34.077Z,2.35
2022-11-23T16:43:00.532Z,1.80
2022-11-23T16:45:27.300Z,1.80
2022-11-23T16:48:01.877Z,2.97
2022-11-23T16:50:31.125Z,2.63
2022-11-23T16:53:02.058Z,1.65
2022-11-23T16:55:28.523Z,2.13
2022-11-23T16:57:55.955Z,2.00
2022-11-23T17:00:22.803Z,1.50
2022-11-23T17:02:49.208Z,2.38
2022-11-23T17:05:20.672Z,1.63
2022-11-23T17:07:47.174Z,2.00
2022-11-23T17:10:14.375Z,1.67
2022-11-23T17:12:48.937Z,1.65
2022-11-23T17:15:16.091Z,2.10
2022-11-23T17:17:42.417Z,1.80
2022-11-23T17:20:12.581Z,1.70
2022-11-23T17:22:39.020Z,2.67
2022-11-23T17:25:11.686Z,1.80
2022-11-23T17:27:41.980Z,2.17
2022-11-23T17:30:15.070Z,1.92
2022-11-23T17:32:41.444Z,1.90
2022-11-23T17:35:08.208Z,2.10
2022-11-23T17:37:35.063Z,1.83
2022-11-23T17:40:01.383Z,2.30
2022-11-23T17:42:27.771Z,2.58
2022-11-23T17:44:54.220Z,2.35
2022-11-23T17:47:26.418Z,2.40
2022-11-23T17:49:52.964Z,2.10
2022-11-23T17:52:19.528Z,2.20
2022-11-23T17:54:45.884Z,2.35
2022-11-23T17:57:16.891Z,2.47
2022-11-23T17:59:43.570Z,2.00
2022-11-23T18:02:10.593Z,1.60
2022-11-23T18:04:37.153Z,1.50
2022-11-23T18:07:04.101Z,1.45
2022-11-23T18:09:31.428Z,1.67
2022-11-23T18:11:58.157Z,1.52
2022-11-23T18:14:28.685Z,1.48
2022-11-23T18:16:56.345Z,1.10
2022-11-23T18:19:23.397Z,1.70
2022-11-23T18:21:50.019Z,1.50
2022-11-23T18:24:16.471Z,1.25
2022-11-23T18:26:42.960Z,0.85
2022-11-23T18:29:15.575Z,1.00
2022-11-23T18:31:43.417Z,1.10
2022-11-23T18:34:09.916Z,1.20
2022-11-23T18:36:36.339Z,1.20
2022-11-23T18:39:02.778Z,1.00
2022-11-23T18:41:29.133Z,0.90
2022-11-23T18:43:55.596Z,1.05
2022-11-23T18:46:22.266Z,1.52
2022-11-23T18:48:50.288Z,1.27
2022-11-23T18:51:17.761Z,1.58
2022-11-23T18:53:48.005Z,1.58
2022-11-23T18:56:14.569Z,1.50
2022-11-23T18:58:42.707Z,1.50
2022-11-23T19:01:12.744Z,1.60
2022-11-23T19:03:41.596Z,1.52
2022-11-23T19:06:08.948Z,1.65
2022-11-23T19:08:46.804Z,1.95
2022-11-23T19:11:21.479Z,2.00
2022-11-23T19:13:53.351Z,2.47
2022-11-23T19:16:22.847Z,3.10
2022-11-23T19:18:56.756Z,2.55
2022-11-23T19:21:25.532Z,3.58
2022-11-23T19:23:53.508Z,3.42
2022-11-23T19:26:19.876Z,3.08
2022-11-23T19:28:46.825Z,3.28
2022-11-23T19:31:26.548Z,3.40
2022-11-23T19:33:56.155Z,3.17
2022-11-23T19:36:24.585Z,2.90
2022-11-23T19:38:51.968Z,3.13
2022-11-23T19:41:19.166Z,3.15
2022-11-23T19:43:45.887Z,3.30
2022-11-23T19:46:14.087Z,3.53
2022-11-23T19:48:42.091Z,3.05
2022-11-23T19:51:12.536Z,3.08
2022-11-23T19:53:40.737Z,3.50
2022-11-23T19:56:11.719Z,2.90
2022-11-23T19:58:38.442Z,2.58
2022-11-23T20:01:06.884Z,2.90
2022-11-23T20:03:34.965Z,2.78
2022-11-23T20:06:04.542Z,2.83
2022-11-23T20:08:31.233Z,3.25
2022-11-23T20:10:57.898Z,3.15
2022-11-23T20:13:24.342Z,3.30
2022-11-23T20:15:50.823Z,3.92
2022-11-23T20:18:18.363Z,2.53
2022-11-23T20:20:47.163Z,2.60
2022-11-23T20:23:17.023Z,2.70
2022-11-23T20:25:43.556Z,3.10
2022-11-23T20:28:13.848Z,3.10
2022-11-23T20:30:42.373Z,2.85
2022-11-23T20:33:11.591Z,2.95
2022-11-23T20:35:38.517Z,2.78
2022-11-23T20:38:05.133Z,2.90
2022-11-23T20:40:32.554Z,3.25
2022-11-23T20:42:59.902Z,3.55
2022-11-23T20:45:26.727Z,3.38
2022-11-23T20:47:54.644Z,3.15
2022-11-23T20:50:26.793Z,2.78
2022-11-23T20:53:03.365Z,3.28
2022-11-23T20:55:31.902Z,3.35
2022-11-23T20:57:58.224Z,3.42
2022-11-23T21:00:24.677Z,3.42
2022-11-23T21:02:53.031Z,3.30
2022-11-23T21:05:20.510Z,4.25
2022-11-23T21:07:48.028Z,3.63
2022-11-23T21:10:34.176Z,3.08
2022-11-23T21:13:20.117Z,3.42
2022-11-23T21:15:46.570Z,3.33
2022-11-23T21:18:13.221Z,3.80
2022-11-23T21:20:40.685Z,3.60
2022-11-23T21:23:07.137Z,3.88
2022-11-23T21:25:35.377Z,3.83
2022-11-23T21:28:03.177Z,4.18
2022-11-23T21:30:30.579Z,4.10
2022-11-23T21:32:57.150Z,4.65
2022-11-23T21:35:23.525Z,3.92
2022-11-23T21:37:49.921Z,3.67
2022-11-23T21:40:16.478Z,3.72
2022-11-23T21:42:44.579Z,4.43
2022-11-23T21:45:11.113Z,3.13
2022-11-23T21:47:37.494Z,3.28
2022-11-23T21:50:04.467Z,4.13
2022-11-23T21:52:30.854Z,3.85
2022-11-23T21:54:57.370Z,4.05
2022-11-23T21:57:23.745Z,4.28
2022-11-23T21:59:50.164Z,3.40
2022-11-23T22:02:16.646Z,3.75
2022-11-23T22:04:43.098Z,4.32
2022-11-23T22:07:09.583Z,4.05
2022-11-23T22:09:35.978Z,4.10
2022-11-23T22:12:02.395Z,4.35
2022-11-23T22:14:28.730Z,4.10
2022-11-23T22:16:56.610Z,3.70
2022-11-23T22:19:23.006Z,4.07
2022-11-23T22:21:49.344Z,3.67
2022-11-23T22:24:18.249Z,4.10
2022-11-23T22:26:45.892Z,3.83
2022-11-23T22:29:12.477Z,4.03
2022-11-23T22:31:39.481Z,3.80
2022-11-23T22:34:08.771Z,5.35
2022-11-23T22:36:35.319Z,3.60
2022-11-23T22:39:04.747Z,4.32
2022-11-23T22:41:36.146Z,4.38
2022-11-23T22:44:03.292Z,3.47
2022-11-23T22:46:29.754Z,4.00
2022-11-23T22:48:59.400Z,4.05
2022-11-23T22:51:28.525Z,3.72
2022-11-23T22:53:57.504Z,3.80
2022-11-23T22:56:24.483Z,4.03
2022-11-23T22:58:51.028Z,3.42
2022-11-23T23:01:23.156Z,3.97
2022-11-23T23:03:55.333Z,4.40
2022-11-23T23:06:24.570Z,3.78
2022-11-23T23:09:01.776Z,4.30
2022-11-23T23:11:30.616Z,4.18
2022-11-23T23:13:57.687Z,3.47
2022-11-23T23:16:24.886Z,4.10
2022-11-23T23:18:51.451Z,3.58
2022-11-23T23:21:20.339Z,5.00
2022-11-23T23:23:49.367Z,3.83
2022-11-23T23:26:17.661Z,4.00
2022-11-23T23:28:44.627Z,3.47
2022-11-23T23:31:14.123Z,3.85
2022-11-23T23:33:40.833Z,3.50
2022-11-23T23:36:12.783Z,3.20
2022-11-23T23:38:40.244Z,4.00
2022-11-23T23:41:07.591Z,3.90
2022-11-23T23:43:34.405Z,3.50
2022-11-23T23:46:03.205Z,4.22
2022-11-23T23:48:32.273Z,3.20
2022-11-23T23:50:58.631Z,4.07
2022-11-23T23:53:25.028Z,3.30
2022-11-23T23:56:00.027Z,3.72
2022-11-23T23:58:27.243Z,4.20
